Time;durP1;ratioP1;P1;durP2;ratioP2;P2;SDS_P1;SDS_P2;PMS_P1;PMS_P2;Temp;Humidity;BMP_temperature;BMP_pressure;BME280_temperature;BME280_humidity;BME280_pressure;Samples;Min_cycle;Max_cycle;Signal;HPM_P1;HPM_P2
2023/06/19 00:00:57;;;;;;;1.65;1.55;;;;;;;;;;5064744;28;20045;-63
2023/06/19 00:03:23;;;;;;;1.80;1.70;;;;;;;;;;5063822;28;20118;-62
2023/06/19 00:05:49;;;;;;;1.75;1.65;;;;;;;;;;5064083;28;20165;-62
2023/06/19 00:08:15;;;;;;;2.33;2.17;;;;;;;;;;5063872;28;20048;-62
2023/06/19 00:10:41;;;;;;;1.90;1.80;;;;;;;;;;5063534;28;20113;-62
2023/06/19 00:13:07;;;;;;;1.85;1.75;;;;;;;;;;5064245;28;20044;-62
2023/06/19 00:15:33;;;;;;;1.60;1.50;;;;;;;;;;5064175;28;20047;-62
2023/06/19 00:17:59;;;;;;;1.73;1.63;;;;;;;;;;5063300;28;20519;-62
2023/06/19 00:20:25;;;;;;;1.77;1.67;;;;;;;;;;5063985;28;20052;-62
2023/06/19 00:22:52;;;;;;;2.20;2.10;;;;;;;;;;5063771;28;20040;-62
2023/06/19 00:25:19;;;;;;;1.80;1.70;;;;;;;;;;5062733;28;20064;-62
2023/06/19 00:27:45;;;;;;;2.78;1.50;;;;;;;;;;5063652;28;20539;-62
2023/06/19 00:30:11;;;;;;;1.95;1.85;;;;;;;;;;5062816;28;20040;-62
2023/06/19 00:32:46;;;;;;;1.40;1.30;;;;;;;;;;5063671;28;20079;-62
2023/06/19 00:35:13;;;;;;;1.90;1.80;;;;;;;;;;5045485;28;20492;-63
2023/06/19 00:37:38;;;;;;;2.05;1.95;;;;;;;;;;5063190;28;20115;-63
2023/06/19 00:40:05;;;;;;;1.45;1.35;;;;;;;;;;5064037;28;20171;-63
2023/06/19 00:42:31;;;;;;;1.65;1.55;;;;;;;;;;5063310;28;20063;-63
2023/06/19 00:44:57;;;;;;;1.50;1.40;;;;;;;;;;5062910;28;20415;-62
2023/06/19 00:47:25;;;;;;;1.80;1.70;;;;;;;;;;5063593;28;20044;-62
2023/06/19 00:49:51;;;;;;;1.90;1.80;;;;;;;;;;5063374;28;20052;-62
2023/06/19 00:52:17;;;;;;;1.85;1.70;;;;;;;;;;5062317;28;20451;-62
2023/06/19 00:54:44;;;;;;;1.63;1.52;;;;;;;;;;5063479;28;20040;-63
2023/06/19 00:57:10;;;;;;;2.53;2.33;;;;;;;;;;5063378;28;20056;-63
2023/06/19 00:59:36;;;;;;;2.40;2.10;;;;;;;;;;5062510;28;20094;-63
2023/06/19 01:02:02;;;;;;;1.75;1.65;;;;;;;;;;5063337;28;20040;-63
2023/06/19 01:04:29;;;;;;;1.88;1.77;;;;;;;;;;5062727;28;20040;-63
2023/06/19 01:07:09;;;;;;;1.70;1.60;;;;;;;;;;5062816;28;20052;-62
2023/06/19 01:09:39;;;;;;;1.73;1.63;;;;;;;;;;5063282;28;20397;-62
2023/06/19 01:12:08;;;;;;;1.85;1.75;;;;;;;;;;5063291;28;20060;-62
2023/06/19 01:14:44;;;;;;;1.88;1.77;;;;;;;;;;5062291;28;20040;-62
2023/06/19 01:17:10;;;;;;;1.70;1.60;;;;;;;;;;5062964;28;20037;-62
2023/06/19 01:19:36;;;;;;;2.00;1.90;;;;;;;;;;5062274;28;20329;-62
2023/06/19 01:22:03;;;;;;;1.83;1.73;;;;;;;;;;5063007;28;20224;-62
2023/06/19 01:24:29;;;;;;;1.55;1.45;;;;;;;;;;5062742;28;20456;-62
2023/06/19 01:26:55;;;;;;;1.50;1.40;;;;;;;;;;5062867;28;20414;-63
2023/06/19 01:29:21;;;;;;;1.30;1.20;;;;;;;;;;5062767;28;20408;-62
2023/06/19 01:32:10;;;;;;;1.63;1.52;;;;;;;;;;5065075;28;20064;-63
2023/06/19 01:34:37;;;;;;;1.45;1.35;;;;;;;;;;5068854;28;20044;-63
2023/06/19 01:37:05;;;;;;;1.60;1.50;;;;;;;;;;5069663;28;20040;-62
2023/06/19 01:39:32;;;;;;;1.33;1.23;;;;;;;;;;5069023;28;20463;-62
2023/06/19 01:41:59;;;;;;;1.70;1.60;;;;;;;;;;5069227;28;20119;-62
2023/06/19 01:44:25;;;;;;;1.58;1.48;;;;;;;;;;5070033;28;20514;-63
2023/06/19 01:46:51;;;;;;;2.20;2.10;;;;;;;;;;5069286;28;20104;-62
2023/06/19 01:49:17;;;;;;;1.58;1.48;;;;;;;;;;5068233;28;20450;-62
2023/06/19 01:51:43;;;;;;;2.85;2.65;;;;;;;;;;5069528;28;20443;-62
2023/06/19 01:54:09;;;;;;;3.08;2.88;;;;;;;;;;5069285;28;20041;-62
2023/06/19 01:56:36;;;;;;;3.53;3.22;;;;;;;;;;5068716;28;20045;-62
2023/06/19 01:59:02;;;;;;;2.97;2.78;;;;;;;;;;5069184;28;20449;-62
2023/06/19 02:01:28;;;;;;;3.03;2.83;;;;;;;;;;5068615;28;20353;-62
2023/06/19 02:03:54;;;;;;;3.20;3.00;;;;;;;;;;5069652;28;20048;-62
2023/06/19 02:06:21;;;;;;;4.32;4.03;;;;;;;;;;5068852;28;20036;-62
2023/06/19 02:08:48;;;;;;;3.13;2.92;;;;;;;;;;5068785;28;20044;-62
2023/06/19 02:11:14;;;;;;;3.53;3.22;;;;;;;;;;5068846;28;20064;-62
2023/06/19 02:13:40;;;;;;;3.92;3.53;;;;;;;;;;5069262;28;20049;-62
2023/06/19 02:16:06;;;;;;;3.50;3.30;;;;;;;;;;5068399;28;20106;-62
2023/06/19 02:18:32;;;;;;;4.20;3.90;;;;;;;;;;5069091;28;20052;-62
2023/06/19 02:20:59;;;;;;;3.25;3.00;;;;;;;;;;5069126;28;20124;-62
2023/06/19 02:23:25;;;;;;;3.67;3.38;;;;;;;;;;5068451;28;20132;-62
2023/06/19 02:25:51;;;;;;;4.30;3.90;;;;;;;;;;5068821;28;20479;-62
2023/06/19 02:28:17;;;;;;;4.40;4.10;;;;;;;;;;5068994;28;20041;-62
2023/06/19 02:30:43;;;;;;;4.65;4.25;;;;;;;;;;5068119;28;20533;-62
2023/06/19 02:33:09;;;;;;;4.32;4.03;;;;;;;;;;5069019;28;20041;-62
2023/06/19 02:35:35;;;;;;;3.97;3.67;;;;;;;;;;5069166;28;20044;-62
2023/06/19 02:38:01;;;;;;;3.83;3.53;;;;;;;;;;5068290;28;20093;-62
2023/06/19 02:40:27;;;;;;;4.13;3.83;;;;;;;;;;5069106;28;20079;-62
2023/06/19 02:42:53;;;;;;;4.30;3.90;;;;;;;;;;5067823;28;20301;-62
2023/06/19 02:45:19;;;;;;;3.80;3.60;;;;;;;;;;5064267;28;20484;-62
2023/06/19 02:47:45;;;;;;;3.40;3.20;;;;;;;;;;5065531;28;20084;-62
2023/06/19 02:50:11;;;;;;;3.13;2.92;;;;;;;;;;5065209;28;20044;-62
2023/06/19 02:52:37;;;;;;;2.92;2.72;;;;;;;;;;5065200;28;20102;-62
2023/06/19 02:55:03;;;;;;;3.10;2.90;;;;;;;;;;5065468;28;20085;-62
2023/06/19 02:57:29;;;;;;;3.92;3.13;;;;;;;;;;5065187;28;20392;-62
2023/06/19 02:59:55;;;;;;;3.17;2.97;;;;;;;;;;5065239;28;20094;-62
2023/06/19 03:02:21;;;;;;;2.70;2.50;;;;;;;;;;5065553;28;20052;-62
2023/06/19 03:04:47;;;;;;;2.70;2.50;;;;;;;;;;5064988;28;20054;-62
2023/06/19 03:07:13;;;;;;;3.03;2.83;;;;;;;;;;5064987;28;20047;-62
2023/06/19 03:09:39;;;;;;;3.88;3.53;;;;;;;;;;5065071;28;20404;-62
2023/06/19 03:12:05;;;;;;;3.70;3.40;;;;;;;;;;5064623;28;20045;-62
2023/06/19 03:14:32;;;;;;;3.28;3.08;;;;;;;;;;5057982;28;20135;-62
2023/06/19 03:16:58;;;;;;;2.90;2.70;;;;;;;;;;5045638;28;20057;-62
2023/06/19 03:19:24;;;;;;;2.20;2.10;;;;;;;;;;5044088;28;20090;-62
2023/06/19 03:21:50;;;;;;;2.40;2.30;;;;;;;;;;5044964;28;20045;-62
2023/06/19 03:24:16;;;;;;;2.00;1.90;;;;;;;;;;5044621;28;20053;-62
2023/06/19 03:26:42;;;;;;;2.25;2.05;;;;;;;;;;5044316;28;20059;-62
2023/06/19 03:29:08;;;;;;;2.05;1.90;;;;;;;;;;5044819;28;20040;-62
2023/06/19 03:31:34;;;;;;;1.88;1.77;;;;;;;;;;5045303;28;20084;-62
2023/06/19 03:34:00;;;;;;;1.70;1.60;;;;;;;;;;5044242;28;20493;-62
2023/06/19 03:36:25;;;;;;;2.20;2.10;;;;;;;;;;5045261;28;20047;-62
2023/06/19 03:38:52;;;;;;;2.50;1.48;;;;;;;;;;5044928;28;20047;-62
2023/06/19 03:41:18;;;;;;;2.15;2.05;;;;;;;;;;5043946;28;20048;-62
2023/06/19 03:43:44;;;;;;;1.65;1.55;;;;;;;;;;5044758;28;20036;-62
2023/06/19 03:46:10;;;;;;;1.50;1.40;;;;;;;;;;5044384;28;20037;-62
2023/06/19 03:48:36;;;;;;;1.45;1.35;;;;;;;;;;5043768;28;20049;-62
2023/06/19 03:51:02;;;;;;;1.40;1.30;;;;;;;;;;5044424;28;20594;-62
2023/06/19 03:53:28;;;;;;;1.73;1.63;;;;;;;;;;5044526;28;20040;-62
2023/06/19 03:55:54;;;;;;;1.80;1.70;;;;;;;;;;5025739;28;20419;-62
2023/06/19 03:58:20;;;;;;;1.90;1.80;;;;;;;;;;5044303;28;20670;-62
2023/06/19 04:00:46;;;;;;;2.97;2.78;;;;;;;;;;5044348;28;20041;-62
2023/06/19 04:03:12;;;;;;;2.97;2.78;;;;;;;;;;5043179;28;20516;-62
2023/06/19 04:05:41;;;;;;;2.83;2.63;;;;;;;;;;5044528;28;20049;-62
2023/06/19 04:08:07;;;;;;;3.22;3.00;;;;;;;;;;5043194;28;20126;-62
2023/06/19 04:10:33;;;;;;;3.15;2.95;;;;;;;;;;5044164;28;20508;-62
2023/06/19 04:12:59;;;;;;;3.50;3.28;;;;;;;;;;5044654;28;20047;-62
2023/06/19 04:15:25;;;;;;;3.75;2.90;;;;;;;;;;5043778;28;20807;-62
2023/06/19 04:17:51;;;;;;;3.58;3.28;;;;;;;;;;5044067;28;20052;-62
2023/06/19 04:20:17;;;;;;;3.10;2.90;;;;;;;;;;5043910;28;20048;-62
2023/06/19 04:22:43;;;;;;;3.08;2.88;;;;;;;;;;5043453;28;20067;-62
2023/06/19 04:25:12;;;;;;;3.47;3.17;;;;;;;;;;5043648;28;20511;-62
2023/06/19 04:27:39;;;;;;;3.67;3.38;;;;;;;;;;5043799;28;20171;-62
2023/06/19 04:30:06;;;;;;;3.88;3.58;;;;;;;;;;5043315;28;20512;-62
2023/06/19 04:32:32;;;;;;;3.72;3.42;;;;;;;;;;5043735;28;20052;-62
2023/06/19 04:34:58;;;;;;;3.60;3.30;;;;;;;;;;5044268;28;20128;-62
2023/06/19 04:37:24;;;;;;;3.50;3.20;;;;;;;;;;5043032;28;20067;-62
2023/06/19 04:39:50;;;;;;;4.78;4.43;;;;;;;;;;5043464;28;20152;-62
2023/06/19 04:42:19;;;;;;;3.85;3.55;;;;;;;;;;5043267;28;20510;-62
2023/06/19 04:44:48;;;;;;;3.83;3.53;;;;;;;;;;5042929;28;20087;-62
2023/06/19 04:47:15;;;;;;;3.40;3.20;;;;;;;;;;5042865;28;20480;-62
2023/06/19 04:49:41;;;;;;;2.72;2.53;;;;;;;;;;5043235;28;20094;-62
2023/06/19 04:52:07;;;;;;;2.80;2.60;;;;;;;;;;5042529;28;20052;-62
2023/06/19 04:54:33;;;;;;;2.90;2.70;;;;;;;;;;5043609;28;20045;-62
2023/06/19 04:56:59;;;;;;;3.10;2.90;;;;;;;;;;5044040;28;20458;-62
2023/06/19 04:59:25;;;;;;;2.85;2.65;;;;;;;;;;5042853;28;20041;-62
2023/06/19 05:01:54;;;;;;;3.00;2.80;;;;;;;;;;5043293;28;20046;-62
2023/06/19 05:04:22;;;;;;;3.30;3.03;;;;;;;;;;5042409;28;20163;-62
2023/06/19 05:06:48;;;;;;;3.42;3.15;;;;;;;;;;5042654;28;20398;-62
2023/06/19 05:09:14;;;;;;;2.95;2.75;;;;;;;;;;5042695;28;20045;-62
2023/06/19 05:11:40;;;;;;;2.60;2.40;;;;;;;;;;5041995;28;20057;-62
2023/06/19 05:14:06;;;;;;;2.88;2.67;;;;;;;;;;5043176;28;20053;-62
2023/06/19 05:16:33;;;;;;;2.03;1.83;;;;;;;;;;5043402;28;20045;-62
2023/06/19 05:18:59;;;;;;;1.77;1.58;;;;;;;;;;5042692;28;20091;-62
2023/06/19 05:21:25;;;;;;;2.00;1.90;;;;;;;;;;5043499;28;20083;-62
2023/06/19 05:23:52;;;;;;;2.35;2.15;;;;;;;;;;5042764;28;20080;-62
2023/06/19 05:26:19;;;;;;;2.15;1.90;;;;;;;;;;5041969;28;20621;-62
2023/06/19 05:28:45;;;;;;;1.80;1.70;;;;;;;;;;5042822;28;20044;-62
2023/06/19 05:31:11;;;;;;;2.05;1.55;;;;;;;;;;5042508;28;20073;-62
2023/06/19 05:33:37;;;;;;;2.17;1.83;;;;;;;;;;5042099;28;20052;-62
2023/06/19 05:36:03;;;;;;;2.85;2.65;;;;;;;;;;5042798;28;20409;-62
2023/06/19 05:38:30;;;;;;;3.80;3.50;;;;;;;;;;5043244;28;20045;-62
2023/06/19 05:40:57;;;;;;;3.03;2.83;;;;;;;;;;5042625;28;20053;-62
2023/06/19 05:43:24;;;;;;;2.53;2.30;;;;;;;;;;5042329;28;20647;-61
2023/06/19 05:45:50;;;;;;;2.50;2.30;;;;;;;;;;5042560;28;20816;-61
2023/06/19 05:48:16;;;;;;;1.90;1.80;;;;;;;;;;5041766;28;20143;-61
2023/06/19 05:50:42;;;;;;;3.17;2.90;;;;;;;;;;5043070;28;20087;-61
2023/06/19 05:53:08;;;;;;;3.72;3.40;;;;;;;;;;5042554;28;20037;-62
2023/06/19 05:55:34;;;;;;;5.88;3.38;;;;;;;;;;5041902;28;20048;-62
2023/06/19 05:58:00;;;;;;;3.53;3.13;;;;;;;;;;5042985;28;20045;-62
2023/06/19 06:00:27;;;;;;;4.00;3.60;;;;;;;;;;5042774;28;20420;-62
2023/06/19 06:02:53;;;;;;;3.47;3.17;;;;;;;;;;5041930;28;20107;-62
2023/06/19 06:05:20;;;;;;;5.60;4.45;;;;;;;;;;5042147;28;20497;-62
2023/06/19 06:07:46;;;;;;;5.72;4.72;;;;;;;;;;5041742;28;20052;-62
2023/06/19 06:10:13;;;;;;;5.35;4.95;;;;;;;;;;5042442;28;20155;-61
2023/06/19 06:12:39;;;;;;;6.70;4.38;;;;;;;;;;5042859;28;20056;-62
2023/06/19 06:15:06;;;;;;;5.18;4.78;;;;;;;;;;5041487;28;20056;-62
2023/06/19 06:17:32;;;;;;;3.67;3.38;;;;;;;;;;5042977;28;20083;-62
2023/06/19 06:19:58;;;;;;;5.30;4.43;;;;;;;;;;5046671;28;20067;-62
2023/06/19 06:22:24;;;;;;;6.65;4.25;;;;;;;;;;5045442;28;20308;-62
2023/06/19 06:24:50;;;;;;;4.22;3.90;;;;;;;;;;5046037;28;20090;-62
2023/06/19 06:27:16;;;;;;;3.58;3.28;;;;;;;;;;5045791;28;20053;-62
2023/06/19 06:29:42;;;;;;;4.65;3.88;;;;;;;;;;5044961;28;20041;-62
2023/06/19 06:32:08;;;;;;;5.95;5.55;;;;;;;;;;5046018;28;20036;-62
2023/06/19 06:34:35;;;;;;;5.40;5.00;;;;;;;;;;5046183;28;20182;-62
2023/06/19 06:37:01;;;;;;;4.63;4.30;;;;;;;;;;5045885;28;20044;-63
2023/06/19 06:39:27;;;;;;;7.05;4.47;;;;;;;;;;5028523;28;20056;-63
2023/06/19 06:41:53;;;;;;;7.47;6.82;;;;;;;;;;5046342;28;20124;-63
2023/06/19 06:44:19;;;;;;;6.95;6.35;;;;;;;;;;5045180;28;20055;-63
2023/06/19 06:46:45;;;;;;;8.63;7.93;;;;;;;;;;5045886;28;20052;-63
2023/06/19 06:49:12;;;;;;;6.50;5.95;;;;;;;;;;5045738;28;20048;-63
2023/06/19 06:51:38;;;;;;;6.53;5.93;;;;;;;;;;5044861;28;20575;-63
2023/06/19 06:54:04;;;;;;;8.00;7.30;;;;;;;;;;5045660;28;20037;-63
2023/06/19 06:56:30;;;;;;;5.90;5.47;;;;;;;;;;5045692;28;20463;-63
2023/06/19 06:58:56;;;;;;;7.55;6.95;;;;;;;;;;5044778;28;20067;-63
2023/06/19 07:01:22;;;;;;;7.22;6.63;;;;;;;;;;5045449;28;20037;-63
2023/06/19 07:03:48;;;;;;;7.75;7.05;;;;;;;;;;5045572;28;20053;-63
2023/06/19 07:06:14;;;;;;;7.90;7.28;;;;;;;;;;5044376;28;20117;-63
2023/06/19 07:08:40;;;;;;;9.68;8.77;;;;;;;;;;5045189;28;20627;-63
2023/06/19 07:11:07;;;;;;;12.02;10.82;;;;;;;;;;5044375;28;20065;-63
2023/06/19 07:13:33;;;;;;;12.57;11.30;;;;;;;;;;5045179;28;20037;-62
2023/06/19 07:16:01;;;;;;;10.27;9.25;;;;;;;;;;5045904;28;20052;-63
2023/06/19 07:18:27;;;;;;;8.95;7.75;;;;;;;;;;5044984;28;20412;-63
2023/06/19 07:20:53;;;;;;;14.30;12.52;;;;;;;;;;5045347;28;20041;-63
2023/06/19 07:23:19;;;;;;;14.23;12.73;;;;;;;;;;5044753;28;20044;-63
2023/06/19 07:25:47;;;;;;;16.85;14.75;;;;;;;;;;5044391;28;20037;-63
2023/06/19 07:28:13;;;;;;;12.60;11.30;;;;;;;;;;5045115;28;20072;-63
2023/06/19 07:30:39;;;;;;;16.13;14.40;;;;;;;;;;5044133;28;20036;-63
2023/06/19 07:33:05;;;;;;;18.95;15.07;;;;;;;;;;5044435;28;20045;-62
2023/06/19 07:35:31;;;;;;;16.70;14.75;;;;;;;;;;5044723;28;20049;-64
2023/06/19 07:37:57;;;;;;;15.95;13.73;;;;;;;;;;5045189;28;20553;-63
2023/06/19 07:40:23;;;;;;;14.02;12.13;;;;;;;;;;5044012;28;20048;-62
2023/06/19 07:42:49;;;;;;;8.40;7.53;;;;;;;;;;5044922;28;20041;-62
2023/06/19 07:45:15;;;;;;;12.18;9.68;;;;;;;;;;5044885;28;20499;-62
2023/06/19 07:47:41;;;;;;;12.43;10.70;;;;;;;;;;5043818;28;20053;-61
2023/06/19 07:50:08;;;;;;;14.82;11.93;;;;;;;;;;5044441;28;20037;-61
2023/06/19 07:52:34;;;;;;;10.98;8.88;;;;;;;;;;5044459;28;20051;-62
2023/06/19 07:55:00;;;;;;;12.32;10.00;;;;;;;;;;5044299;28;20383;-62
2023/06/19 07:57:26;;;;;;;13.30;11.90;;;;;;;;;;5044305;28;20049;-62
2023/06/19 07:59:53;;;;;;;15.95;12.30;;;;;;;;;;5044410;28;20041;-61
2023/06/19 08:02:19;;;;;;;12.75;10.43;;;;;;;;;;5043389;28;20393;-62
2023/06/19 08:04:46;;;;;;;10.32;9.20;;;;;;;;;;5044287;28;20052;-61
2023/06/19 08:07:12;;;;;;;8.93;8.13;;;;;;;;;;5043598;28;20140;-62
2023/06/19 08:09:38;;;;;;;9.13;7.10;;;;;;;;;;5043794;28;20380;-62
2023/06/19 08:12:04;;;;;;;9.02;8.13;;;;;;;;;;5044471;28;20164;-62
2023/06/19 08:14:30;;;;;;;13.73;11.57;;;;;;;;;;5043763;28;20046;-62
2023/06/19 08:16:56;;;;;;;10.35;9.35;;;;;;;;;;5044019;28;20048;-62
2023/06/19 08:19:22;;;;;;;10.95;9.07;;;;;;;;;;5044133;28;20127;-62
2023/06/19 08:21:48;;;;;;;8.00;7.20;;;;;;;;;;5043065;28;20174;-62
2023/06/19 08:24:14;;;;;;;7.85;7.05;;;;;;;;;;5043687;28;20177;-62
2023/06/19 08:26:40;;;;;;;7.78;6.97;;;;;;;;;;5043855;28;20523;-62
2023/06/19 08:29:06;;;;;;;6.72;6.13;;;;;;;;;;5043137;28;20048;-62
2023/06/19 08:31:33;;;;;;;7.63;6.93;;;;;;;;;;5043990;28;20037;-62
2023/06/19 08:34:00;;;;;;;8.27;7.22;;;;;;;;;;5044593;28;20099;-62
2023/06/19 08:36:26;;;;;;;6.70;6.15;;;;;;;;;;5042778;28;20412;-62
2023/06/19 08:38:52;;;;;;;6.47;5.88;;;;;;;;;;5043531;28;20993;-62
2023/06/19 08:41:19;;;;;;;7.88;7.00;;;;;;;;;;5042418;28;20049;-62
2023/06/19 08:43:45;;;;;;;7.60;6.90;;;;;;;;;;5043300;28;20044;-62
2023/06/19 08:46:12;;;;;;;7.00;6.15;;;;;;;;;;5043327;28;20468;-62
2023/06/19 08:48:38;;;;;;;6.03;5.43;;;;;;;;;;5043405;28;20045;-62
2023/06/19 08:51:05;;;;;;;7.07;6.38;;;;;;;;;;5042623;28;20124;-62
2023/06/19 08:53:35;;;;;;;5.50;5.00;;;;;;;;;;5043457;28;20037;-62
2023/06/19 08:56:02;;;;;;;5.72;5.22;;;;;;;;;;5043875;28;20041;-62
2023/06/19 08:58:28;;;;;;;7.43;5.63;;;;;;;;;;5043198;28;20053;-62
2023/06/19 09:00:54;;;;;;;4.05;3.75;;;;;;;;;;5043482;28;20053;-62
2023/06/19 09:03:21;;;;;;;6.85;6.30;;;;;;;;;;5042928;28;20105;-62
2023/06/19 09:05:50;;;;;;;5.05;4.20;;;;;;;;;;5042381;28;20056;-61
2023/06/19 09:08:16;;;;;;;4.80;4.40;;;;;;;;;;5042611;28;20499;-61
2023/06/19 09:10:43;;;;;;;5.57;5.05;;;;;;;;;;5042214;28;20089;-61
2023/06/19 09:13:09;;;;;;;5.78;4.40;;;;;;;;;;5043049;28;20045;-62
2023/06/19 09:15:36;;;;;;;4.88;4.22;;;;;;;;;;5042964;28;20504;-62
2023/06/19 09:18:06;;;;;;;4.50;4.10;;;;;;;;;;5042942;28;20044;-62
2023/06/19 09:20:34;;;;;;;4.68;4.25;;;;;;;;;;5043141;28;20048;-62
2023/06/19 09:23:00;;;;;;;6.47;5.10;;;;;;;;;;5043377;28;20044;-62
2023/06/19 09:25:29;;;;;;;6.20;5.38;;;;;;;;;;5041930;28;20093;-62
2023/06/19 09:27:55;;;;;;;4.25;3.85;;;;;;;;;;5042824;28;20126;-62
2023/06/19 09:30:22;;;;;;;6.00;4.22;;;;;;;;;;5042668;28;20052;-62
2023/06/19 09:32:48;;;;;;;4.00;3.70;;;;;;;;;;5042009;28;20041;-62
2023/06/19 09:35:14;;;;;;;4.18;3.65;;;;;;;;;;5042320;28;20099;-62
2023/06/19 09:37:40;;;;;;;5.80;5.30;;;;;;;;;;5042887;28;20337;-62
2023/06/19 09:40:10;;;;;;;4.85;4.45;;;;;;;;;;5042545;28;20045;-62
2023/06/19 09:42:40;;;;;;;5.28;4.88;;;;;;;;;;5043097;28;20102;-62
2023/06/19 09:45:10;;;;;;;4.32;3.92;;;;;;;;;;5042769;28;20055;-62
2023/06/19 09:47:37;;;;;;;3.85;3.55;;;;;;;;;;5042000;28;20072;-62
2023/06/19 09:50:04;;;;;;;5.95;4.35;;;;;;;;;;5042964;28;20443;-62
2023/06/19 09:52:30;;;;;;;5.28;4.88;;;;;;;;;;5043586;28;20044;-61
2023/06/19 09:54:57;;;;;;;5.85;5.28;;;;;;;;;;5045998;28;20041;-63
2023/06/19 09:57:24;;;;;;;6.85;6.13;;;;;;;;;;5046640;28;20048;-63
2023/06/19 09:59:56;;;;;;;6.07;5.47;;;;;;;;;;5046016;28;20340;-63
2023/06/19 10:02:22;;;;;;;4.55;3.90;;;;;;;;;;5046847;28;20053;-63
2023/06/19 10:04:52;;;;;;;6.78;6.18;;;;;;;;;;5046614;28;20036;-63
2023/06/19 10:07:22;;;;;;;5.22;4.72;;;;;;;;;;5045624;28;20362;-63
2023/06/19 10:10:06;;;;;;;7.10;5.88;;;;;;;;;;5046562;28;20056;-63
2023/06/19 10:12:35;;;;;;;5.90;5.30;;;;;;;;;;5046754;28;20531;-63
2023/06/19 10:15:18;;;;;;;5.95;5.22;;;;;;;;;;5046153;28;20500;-63
2023/06/19 10:18:14;;;;;;;10.13;6.70;;;;;;;;;;5046519;28;20535;-63
2023/06/19 10:20:40;;;;;;;4.53;4.13;;;;;;;;;;5018857;28;20053;-63
2023/06/19 10:23:07;;;;;;;6.88;6.15;;;;;;;;;;5045653;28;20655;-63
2023/06/19 10:25:34;;;;;;;6.72;5.93;;;;;;;;;;5046413;28;20043;-63
2023/06/19 10:28:01;;;;;;;12.20;5.82;;;;;;;;;;5045994;28;20041;-63
2023/06/19 10:30:29;;;;;;;7.35;6.65;;;;;;;;;;5045850;28;20045;-63
2023/06/19 10:32:55;;;;;;;6.10;5.20;;;;;;;;;;5045870;28;20266;-63
2023/06/19 10:35:21;;;;;;;5.32;4.80;;;;;;;;;;5045298;28;20040;-63
2023/06/19 10:37:47;;;;;;;5.45;5.05;;;;;;;;;;5045837;28;20048;-63
2023/06/19 10:40:14;;;;;;;3.95;3.65;;;;;;;;;;5045768;28;20084;-63
2023/06/19 10:42:40;;;;;;;4.85;4.47;;;;;;;;;;5044976;28;20484;-63
2023/06/19 10:45:07;;;;;;;3.97;3.67;;;;;;;;;;5045887;28;20103;-63
2023/06/19 10:47:34;;;;;;;4.60;4.20;;;;;;;;;;5045598;28;20686;-63
2023/06/19 10:50:01;;;;;;;7.63;6.47;;;;;;;;;;5045795;28;20036;-63
2023/06/19 10:52:29;;;;;;;7.10;6.45;;;;;;;;;;5045641;28;21012;-63
2023/06/19 10:54:55;;;;;;;5.70;5.13;;;;;;;;;;5045958;28;20048;-60
2023/06/19 10:57:28;;;;;;;6.80;6.05;;;;;;;;;;5044528;28;20487;-60
2023/06/19 10:59:54;;;;;;;5.82;5.32;;;;;;;;;;5045669;28;20041;-60
2023/06/19 11:02:21;;;;;;;7.10;5.60;;;;;;;;;;5045199;28;20043;-60
2023/06/19 11:04:47;;;;;;;6.82;6.22;;;;;;;;;;5043513;28;20044;-61
2023/06/19 11:07:13;;;;;;;6.45;5.85;;;;;;;;;;5045293;28;20053;-61
2023/06/19 11:09:39;;;;;;;7.95;6.40;;;;;;;;;;5045310;28;20053;-61
2023/06/19 11:12:07;;;;;;;5.00;4.60;;;;;;;;;;5044653;28;20179;-61
2023/06/19 11:14:39;;;;;;;6.75;5.90;;;;;;;;;;5045379;28;20049;-61
2023/06/19 11:17:09;;;;;;;5.25;4.78;;;;;;;;;;5044938;28;20041;-61
2023/06/19 11:19:36;;;;;;;5.63;5.13;;;;;;;;;;5045339;28;20049;-61
2023/06/19 11:22:02;;;;;;;5.07;4.68;;;;;;;;;;5027658;28;20400;-62
2023/06/19 11:24:28;;;;;;;8.55;7.50;;;;;;;;;;5044240;28;20878;-61
2023/06/19 11:26:56;;;;;;;8.95;8.15;;;;;;;;;;5045053;28;20641;-61
2023/06/19 11:29:23;;;;;;;7.65;6.95;;;;;;;;;;5045285;28;20446;-61
2023/06/19 11:31:50;;;;;;;6.25;5.75;;;;;;;;;;5043987;28;20067;-61
2023/06/19 11:34:17;;;;;;;6.85;6.18;;;;;;;;;;5044763;28;20404;-61
2023/06/19 11:36:43;;;;;;;5.40;5.00;;;;;;;;;;5045026;28;20132;-61
2023/06/19 11:39:13;;;;;;;6.72;5.63;;;;;;;;;;5044112;28;20408;-61
2023/06/19 11:41:39;;;;;;;5.95;5.45;;;;;;;;;;5044732;28;20118;-61
2023/06/19 11:44:06;;;;;;;5.65;5.13;;;;;;;;;;5044480;28;20052;-62
2023/06/19 11:46:33;;;;;;;6.60;6.00;;;;;;;;;;5044505;28;20056;-61
2023/06/19 11:49:09;;;;;;;6.68;5.50;;;;;;;;;;5045208;28;20083;-62
2023/06/19 11:51:35;;;;;;;5.03;4.63;;;;;;;;;;5044461;28;20489;-61
2023/06/19 11:54:02;;;;;;;7.80;7.05;;;;;;;;;;5044228;28;20565;-61
2023/06/19 11:56:29;;;;;;;7.72;7.00;;;;;;;;;;5044291;28;20079;-61
2023/06/19 11:58:55;;;;;;;10.65;8.52;;;;;;;;;;5044114;28;20091;-61
2023/06/19 12:01:21;;;;;;;7.00;6.40;;;;;;;;;;5043429;28;20592;-61
2023/06/19 12:03:47;;;;;;;8.90;7.03;;;;;;;;;;5044440;28;20072;-63
2023/06/19 12:06:13;;;;;;;7.30;6.32;;;;;;;;;;5043980;28;20575;-62
2023/06/19 12:08:39;;;;;;;9.43;8.43;;;;;;;;;;5043686;28;20045;-62
2023/06/19 12:11:08;;;;;;;6.70;6.10;;;;;;;;;;5044043;28;20057;-61
2023/06/19 12:13:34;;;;;;;7.68;6.97;;;;;;;;;;5043931;28;20084;-61
2023/06/19 12:16:00;;;;;;;7.32;6.72;;;;;;;;;;5044759;28;20052;-62
2023/06/19 12:18:26;;;;;;;6.75;5.80;;;;;;;;;;5043907;28;20416;-61
2023/06/19 12:20:52;;;;;;;6.03;5.43;;;;;;;;;;5043766;28;20083;-61
2023/06/19 12:23:18;;;;;;;7.80;7.03;;;;;;;;;;5043691;28;20044;-61
2023/06/19 12:25:44;;;;;;;6.95;6.32;;;;;;;;;;5043911;28;20041;-61
2023/06/19 12:28:11;;;;;;;5.57;5.07;;;;;;;;;;5042871;28;20094;-62
2023/06/19 12:30:37;;;;;;;7.43;6.72;;;;;;;;;;5043903;28;20124;-62
2023/06/19 12:33:04;;;;;;;7.95;7.15;;;;;;;;;;5044265;28;20098;-62
2023/06/19 12:35:30;;;;;;;8.43;7.63;;;;;;;;;;5043297;28;20098;-62
2023/06/19 12:37:56;;;;;;;9.77;7.53;;;;;;;;;;5043590;28;20045;-62
2023/06/19 12:40:22;;;;;;;7.65;6.97;;;;;;;;;;5043349;28;20048;-62
2023/06/19 12:42:50;;;;;;;6.32;5.72;;;;;;;;;;5042749;28;20052;-62
2023/06/19 12:45:16;;;;;;;6.10;5.60;;;;;;;;;;5043560;28;20116;-62
2023/06/19 12:47:42;;;;;;;6.05;5.40;;;;;;;;;;5043578;28;20037;-62
2023/06/19 12:50:08;;;;;;;7.45;6.55;;;;;;;;;;5042455;28;20068;-62
2023/06/19 12:52:34;;;;;;;8.63;7.57;;;;;;;;;;5043748;28;20467;-62
2023/06/19 12:55:01;;;;;;;4.75;4.35;;;;;;;;;;5043740;28;20324;-62
2023/06/19 12:57:27;;;;;;;7.55;6.00;;;;;;;;;;5042371;28;20493;-62
2023/06/19 12:59:53;;;;;;;6.93;6.28;;;;;;;;;;5043577;28;20044;-62
2023/06/19 13:02:19;;;;;;;5.55;5.05;;;;;;;;;;5043213;28;20421;-62
2023/06/19 13:04:45;;;;;;;9.27;6.53;;;;;;;;;;5042725;28;20043;-62
2023/06/19 13:07:12;;;;;;;8.15;6.07;;;;;;;;;;5043505;28;20500;-62
2023/06/19 13:09:38;;;;;;;6.00;5.40;;;;;;;;;;5043067;28;20488;-62
2023/06/19 13:12:05;;;;;;;5.35;4.85;;;;;;;;;;5043781;28;20052;-62
2023/06/19 13:14:34;;;;;;;4.20;3.88;;;;;;;;;;5043534;28;20036;-62
2023/06/19 13:17:00;;;;;;;6.88;4.78;;;;;;;;;;5024761;28;20118;-62
2023/06/19 13:19:26;;;;;;;4.63;4.32;;;;;;;;;;5042762;28;20049;-62
2023/06/19 13:21:52;;;;;;;7.10;5.68;;;;;;;;;;5042883;28;20047;-62
2023/06/19 13:24:18;;;;;;;6.32;5.72;;;;;;;;;;5042339;28;20373;-62
2023/06/19 13:26:45;;;;;;;4.93;4.57;;;;;;;;;;5042654;28;20409;-62
2023/06/19 13:29:14;;;;;;;3.67;3.38;;;;;;;;;;5042195;28;20041;-62
2023/06/19 13:31:40;;;;;;;3.90;3.60;;;;;;;;;;5042211;28;20052;-62
2023/06/19 13:34:06;;;;;;;3.55;3.33;;;;;;;;;;5042761;28;20128;-62
2023/06/19 13:36:32;;;;;;;4.88;4.47;;;;;;;;;;5043540;28;20049;-62
2023/06/19 13:38:59;;;;;;;4.53;3.78;;;;;;;;;;5041979;28;20041;-62
2023/06/19 13:41:25;;;;;;;3.60;3.30;;;;;;;;;;5042810;28;20087;-62
2023/06/19 13:43:53;;;;;;;3.03;2.83;;;;;;;;;;5042939;28;20049;-62
2023/06/19 13:46:21;;;;;;;4.43;3.88;;;;;;;;;;5042180;28;20048;-62
2023/06/19 13:48:50;;;;;;;4.40;4.00;;;;;;;;;;5042556;28;20385;-62
2023/06/19 13:51:16;;;;;;;3.90;3.60;;;;;;;;;;5042206;28;20524;-62
2023/06/19 13:53:42;;;;;;;3.67;3.38;;;;;;;;;;5042184;28;20059;-62
2023/06/19 13:56:08;;;;;;;3.40;3.10;;;;;;;;;;5042619;28;20041;-62
2023/06/19 13:58:34;;;;;;;3.13;2.83;;;;;;;;;;5043349;28;20536;-62
2023/06/19 14:01:00;;;;;;;3.53;3.30;;;;;;;;;;5042671;28;20087;-62
2023/06/19 14:03:26;;;;;;;4.35;3.28;;;;;;;;;;5042464;28;20427;-62
2023/06/19 14:05:52;;;;;;;4.18;3.63;;;;;;;;;;5042542;28;20041;-62
2023/06/19 14:08:18;;;;;;;3.70;3.40;;;;;;;;;;5041705;28;20056;-62
2023/06/19 14:10:44;;;;;;;3.50;3.25;;;;;;;;;;5041965;28;20065;-62
2023/06/19 14:13:10;;;;;;;4.18;3.88;;;;;;;;;;5041531;28;20128;-62
2023/06/19 14:15:36;;;;;;;3.83;3.53;;;;;;;;;;5042265;28;20045;-62
2023/06/19 14:18:02;;;;;;;3.92;3.63;;;;;;;;;;5043094;28;20033;-62
2023/06/19 14:20:28;;;;;;;3.17;2.85;;;;;;;;;;5041502;28;20068;-62
2023/06/19 14:22:54;;;;;;;2.97;2.78;;;;;;;;;;5042405;28;20532;-62
2023/06/19 14:25:20;;;;;;;2.97;2.78;;;;;;;;;;5042177;28;20094;-62
2023/06/19 14:27:46;;;;;;;3.45;3.15;;;;;;;;;;5041676;28;20091;-62
2023/06/19 14:30:12;;;;;;;2.40;2.20;;;;;;;;;;5042169;28;20074;-62
2023/06/19 14:32:39;;;;;;;3.88;3.58;;;;;;;;;;5042452;28;20045;-62
2023/06/19 14:35:05;;;;;;;3.92;3.55;;;;;;;;;;5042078;28;20045;-62
2023/06/19 14:37:31;;;;;;;4.20;3.90;;;;;;;;;;5043035;28;20554;-62